Shoals, Georgia
Current Conditions -  °F | °C
As of 9:55 PM on Thursday 27 Nov 2014 (Local Time) from KOKZ Reporting Station
Clear Clear  
Wind Chill: 33°   Ceiling: Unl
Heat Index: 38°   Visibility: 10mi
Dew Point: 29°   Wind: 6mph
Humidity: 70%   Direction: 310°NW
Pressure: 30.36"   Gusts: NA
Location:  33.1878°N, 82.6701°W
Report Text: KOKZ 280255Z AUTO 31005KT 10SM CLR 03/M02 A3036 RMK AO2 T00331017
Loading
Personal Weather Stations






























Interactive Weather Map New forecast layout! Learn more

10-Day Weather Forecast

Advertisements
Track Severe Weather on mobile